Time;durP1;ratioP1;P1;durP2;ratioP2;P2;SDS_P1;SDS_P2;PMS_P1;PMS_P2;Temp;Humidity;BMP_temperature;BMP_pressure;BME280_temperature;BME280_humidity;BME280_pressure;Samples;Min_cycle;Max_cycle;Signal;HPM_P1;HPM_P2
2021/11/28 00:02:08;;;;;;;;;;;8.60;81.40;;;;;;4689593;28;19924;-75
2021/11/28 00:04:26;;;;;;;;;;;8.60;81.30;;;;;;4670291;28;19931;-75
2021/11/28 00:06:54;;;;;;;;;;;8.60;81.20;;;;;;4689612;28;19959;-74
2021/11/28 00:09:32;;;;;;;;;;;8.60;81.20;;;;;;4670176;28;20382;-76
2021/11/28 00:12:07;;;;;;;;;;;8.60;81.20;;;;;;4689554;28;20385;-76
2021/11/28 00:14:26;;;;;;;;;;;8.60;81.10;;;;;;4688889;28;20327;-76
2021/11/28 00:16:43;;;;;;;;;;;8.70;81.20;;;;;;4689183;28;20484;-75
2021/11/28 00:19:00;;;;;;;;;;;8.70;81.30;;;;;;4688771;28;20071;-75
2021/11/28 00:21:20;;;;;;;;;;;8.70;81.20;;;;;;4688815;28;19931;-76
2021/11/28 00:23:36;;;;;;;;;;;8.70;81.30;;;;;;4689015;28;20389;-76
2021/11/28 00:25:52;;;;;;;;;;;8.70;81.20;;;;;;4670189;28;19978;-75
2021/11/28 00:28:12;;;;;;;;;;;8.70;81.20;;;;;;4689172;28;19930;-75
2021/11/28 00:30:29;;;;;;;;;;;8.70;81.10;;;;;;4688203;28;20280;-75
2021/11/28 00:32:47;;;;;;;;;;;8.70;81.50;;;;;;4671230;28;20418;-75
2021/11/28 00:35:06;;;;;;;;;;;8.70;81.30;;;;;;4669699;28;19924;-75
2021/11/28 00:37:24;;;;;;;;;;;8.70;81.20;;;;;;4688934;28;20410;-75
2021/11/28 00:39:42;;;;;;;;;;;8.70;81.20;;;;;;4687715;28;19951;-75
2021/11/28 00:42:00;;;;;;;;;;;8.70;81.30;;;;;;4671017;28;19960;-74
2021/11/28 00:44:18;;;;;;;;;;;8.70;81.40;;;;;;4687818;28;20339;-75
2021/11/28 00:46:35;;;;;;;;;;;8.70;81.20;;;;;;4670922;28;19982;-75
2021/11/28 00:48:51;;;;;;;;;;;8.70;81.20;;;;;;4687900;28;20270;-75
2021/11/28 00:51:34;;;;;;;;;;;8.70;81.30;;;;;;4688924;28;19924;-74
2021/11/28 00:53:52;;;;;;;;;;;8.70;81.30;;;;;;4688805;28;20376;-75
2021/11/28 00:56:08;;;;;;;;;;;8.70;81.20;;;;;;4688219;28;19923;-74
2021/11/28 00:58:26;;;;;;;;;;;8.70;81.20;;;;;;4688905;28;19931;-75
2021/11/28 01:00:43;;;;;;;;;;;8.70;81.30;;;;;;4669568;28;19956;-75
2021/11/28 01:03:02;;;;;;;;;;;8.70;81.40;;;;;;4689534;28;19924;-75
2021/11/28 01:05:18;;;;;;;;;;;8.70;81.40;;;;;;4669611;28;19928;-75
2021/11/28 01:07:38;;;;;;;;;;;8.70;81.50;;;;;;4688966;28;19951;-74
2021/11/28 01:09:56;;;;;;;;;;;8.70;81.40;;;;;;4669527;28;19954;-75
2021/11/28 01:12:12;;;;;;;;;;;8.80;81.40;;;;;;4688798;28;19963;-74
2021/11/28 01:14:28;;;;;;;;;;;8.80;81.40;;;;;;4687751;28;19931;-74
2021/11/28 01:16:44;;;;;;;;;;;8.80;81.40;;;;;;4688833;28;20327;-75
2021/11/28 01:19:01;;;;;;;;;;;8.80;81.40;;;;;;4687627;28;19924;-74
2021/11/28 01:21:17;;;;;;;;;;;8.80;81.40;;;;;;4670704;28;19952;-74
2021/11/28 01:23:35;;;;;;;;;;;8.80;81.20;;;;;;4687874;28;19966;-74
2021/11/28 01:26:02;;;;;;;;;;;8.80;81.20;;;;;;4670174;28;19924;-74
2021/11/28 01:28:19;;;;;;;;;;;8.80;81.30;;;;;;4688365;28;20020;-73
2021/11/28 01:30:35;;;;;;;;;;;8.80;81.20;;;;;;4669590;28;19967;-74
2021/11/28 01:32:51;;;;;;;;;;;8.80;81.10;;;;;;4670304;28;19928;-74
2021/11/28 01:35:09;;;;;;;;;;;8.70;81.20;;;;;;4669465;28;19952;-74
2021/11/28 01:37:25;;;;;;;;;;;8.70;81.20;;;;;;4688775;28;19924;-73
2021/11/28 01:39:41;;;;;;;;;;;8.70;81.30;;;;;;4669247;28;19928;-75
2021/11/28 01:41:59;;;;;;;;;;;8.70;81.30;;;;;;4670470;28;19967;-75
2021/11/28 01:44:18;;;;;;;;;;;8.70;81.30;;;;;;4669177;28;19946;-75
2021/11/28 01:46:36;;;;;;;;;;;8.70;81.40;;;;;;4688678;28;19968;-74
2021/11/28 01:48:53;;;;;;;;;;;8.70;81.30;;;;;;4669250;28;20402;-75
2021/11/28 01:51:13;;;;;;;;;;;8.70;81.30;;;;;;4671741;28;20344;-75
2021/11/28 01:53:29;;;;;;;;;;;8.70;81.30;;;;;;4672670;28;19928;-75
2021/11/28 01:55:46;;;;;;;;;;;8.70;81.30;;;;;;4673815;28;20425;-75
2021/11/28 01:58:11;;;;;;;;;;;8.70;81.20;;;;;;4673073;28;19924;-75
2021/11/28 02:00:30;;;;;;;;;;;8.70;81.30;;;;;;4673357;28;19928;-75
2021/11/28 02:02:47;;;;;;;;;;;8.70;81.40;;;;;;4673046;28;19960;-75
2021/11/28 02:05:07;;;;;;;;;;;8.70;81.40;;;;;;4672934;28;19954;-75
2021/11/28 02:07:23;;;;;;;;;;;8.70;81.20;;;;;;4673234;28;19924;-75
2021/11/28 02:09:39;;;;;;;;;;;8.70;81.30;;;;;;4672475;28;20013;-75
2021/11/28 02:11:56;;;;;;;;;;;8.70;81.30;;;;;;4691557;28;19967;-75
2021/11/28 02:14:13;;;;;;;;;;;8.70;81.30;;;;;;4672255;28;20237;-75
2021/11/28 02:16:37;;;;;;;;;;;8.60;81.30;;;;;;4673365;28;19959;-75
2021/11/28 02:18:57;;;;;;;;;;;8.70;81.40;;;;;;4672370;28;19970;-75
2021/11/28 02:21:14;;;;;;;;;;;8.60;81.50;;;;;;4673342;28;19924;-75
2021/11/28 02:23:33;;;;;;;;;;;8.60;81.40;;;;;;4672138;28;20327;-74
2021/11/28 02:25:51;;;;;;;;;;;8.60;81.50;;;;;;4673275;28;19953;-74
2021/11/28 02:28:07;;;;;;;;;;;8.70;81.50;;;;;;4671997;28;19943;-74
2021/11/28 02:30:26;;;;;;;;;;;8.70;81.50;;;;;;4673201;28;19966;-74
2021/11/28 02:32:44;;;;;;;;;;;8.70;81.50;;;;;;4672445;28;19971;-74
2021/11/28 02:35:01;;;;;;;;;;;8.70;81.40;;;;;;4672764;28;19924;-74
2021/11/28 02:37:19;;;;;;;;;;;8.70;81.40;;;;;;4690523;28;19963;-75
2021/11/28 02:39:36;;;;;;;;;;;8.70;81.40;;;;;;4672483;28;19924;-75
2021/11/28 02:41:52;;;;;;;;;;;8.70;81.40;;;;;;4672555;28;19932;-76
2021/11/28 02:44:09;;;;;;;;;;;8.70;81.40;;;;;;4671970;28;19983;-76
2021/11/28 02:46:28;;;;;;;;;;;8.60;81.50;;;;;;4672728;28;20396;-75
2021/11/28 02:48:44;;;;;;;;;;;8.70;81.60;;;;;;4671599;28;19939;-75
2021/11/28 02:51:01;;;;;;;;;;;8.70;82.30;;;;;;4690873;28;20016;-75
2021/11/28 02:53:21;;;;;;;;;;;8.70;81.60;;;;;;4671757;28;19924;-76
2021/11/28 02:55:38;;;;;;;;;;;8.70;81.50;;;;;;4690839;28;19924;-76
2021/11/28 02:57:55;;;;;;;;;;;8.60;81.60;;;;;;4689949;28;19982;-76
2021/11/28 03:00:12;;;;;;;;;;;8.60;81.60;;;;;;4690780;28;20366;-77
2021/11/28 03:02:30;;;;;;;;;;;8.60;81.70;;;;;;4671476;28;20413;-76
2021/11/28 03:04:48;;;;;;;;;;;8.60;81.80;;;;;;4672464;28;19947;-75
2021/11/28 03:07:05;;;;;;;;;;;8.60;81.70;;;;;;4671286;28;20451;-76
2021/11/28 03:09:23;;;;;;;;;;;8.70;81.80;;;;;;4672417;28;20018;-77
2021/11/28 03:11:42;;;;;;;;;;;8.70;81.70;;;;;;4671702;28;20500;-77
2021/11/28 03:13:59;;;;;;;;;;;8.60;81.60;;;;;;4690273;28;19924;-76
2021/11/28 03:16:15;;;;;;;;;;;8.60;81.60;;;;;;4671623;28;19924;-77
2021/11/28 03:18:35;;;;;;;;;;;8.60;81.80;;;;;;4671604;28;20456;-77
2021/11/28 03:20:53;;;;;;;;;;;8.60;81.80;;;;;;4672110;28;19924;-75
2021/11/28 03:23:10;;;;;;;;;;;8.60;81.80;;;;;;4689507;28;19924;-76
2021/11/28 03:25:31;;;;;;;;;;;8.60;81.80;;;;;;4672244;28;20382;-75
2021/11/28 03:27:47;;;;;;;;;;;8.60;81.80;;;;;;4671012;28;19924;-76
2021/11/28 03:30:04;;;;;;;;;;;8.70;81.80;;;;;;4672078;28;20053;-75
2021/11/28 03:32:23;;;;;;;;;;;8.70;81.90;;;;;;4688958;28;19963;-76
2021/11/28 03:35:02;;;;;;;;;;;8.60;81.90;;;;;;4688190;28;19963;-77
2021/11/28 03:37:20;;;;;;;;;;;8.70;81.80;;;;;;4670744;28;20342;-77
2021/11/28 03:39:37;;;;;;;;;;;8.60;81.80;;;;;;4671910;28;19963;-76
2021/11/28 03:41:56;;;;;;;;;;;8.70;81.90;;;;;;4670842;28;19955;-76
2021/11/28 03:44:13;;;;;;;;;;;8.70;81.90;;;;;;4669659;28;20377;-76
2021/11/28 03:46:46;;;;;;;;;;;8.70;82.00;;;;;;4669706;28;20021;-76
2021/11/28 03:49:04;;;;;;;;;;;8.70;82.00;;;;;;4669058;28;19978;-76
2021/11/28 03:51:22;;;;;;;;;;;8.60;81.80;;;;;;4669829;28;20346;-75
2021/11/28 03:53:39;;;;;;;;;;;8.60;81.90;;;;;;4668811;28;19967;-76
2021/11/28 03:56:05;;;;;;;;;;;8.60;82.00;;;;;;4669779;28;20023;-76
2021/11/28 03:58:23;;;;;;;;;;;8.60;82.10;;;;;;4668700;28;20210;-76
2021/11/28 04:00:42;;;;;;;;;;;8.60;82.10;;;;;;4669885;28;19924;-76
2021/11/28 04:03:02;;;;;;;;;;;8.60;82.10;;;;;;4668583;28;20302;-77
2021/11/28 04:05:21;;;;;;;;;;;8.60;82.00;;;;;;4669794;28;19924;-77
2021/11/28 04:07:41;;;;;;;;;;;8.60;82.10;;;;;;4668644;28;20299;-77
2021/11/28 04:09:58;;;;;;;;;;;8.60;82.10;;;;;;4669591;28;19924;-75
2021/11/28 04:12:16;;;;;;;;;;;8.60;82.20;;;;;;4668742;28;19970;-76
2021/11/28 04:14:36;;;;;;;;;;;8.70;82.10;;;;;;4670044;28;20444;-76
2021/11/28 04:16:52;;;;;;;;;;;8.70;82.10;;;;;;4670330;28;19924;-76
2021/11/28 04:19:08;;;;;;;;;;;8.70;82.10;;;;;;4668746;28;19924;-77
2021/11/28 04:21:30;;;;;;;;;;;8.70;82.00;;;;;;4669393;28;20427;-77
2021/11/28 04:23:48;;;;;;;;;;;8.70;82.00;;;;;;4668430;28;20007;-76
2021/11/28 04:26:05;;;;;;;;;;;8.60;81.80;;;;;;4669533;28;20363;-75
2021/11/28 04:28:22;;;;;;;;;;;8.60;81.90;;;;;;4668309;28;19960;-76
2021/11/28 04:30:40;;;;;;;;;;;8.60;82.10;;;;;;4669436;28;19923;-75
2021/11/28 04:32:58;;;;;;;;;;;8.60;82.00;;;;;;4668221;28;19959;-76
2021/11/28 04:35:14;;;;;;;;;;;8.60;82.00;;;;;;4669350;28;20421;-76
2021/11/28 04:37:31;;;;;;;;;;;8.60;81.80;;;;;;4668128;28;19939;-76
2021/11/28 04:39:47;;;;;;;;;;;8.60;82.00;;;;;;4669286;28;19924;-76
2021/11/28 04:42:05;;;;;;;;;;;8.60;82.00;;;;;;4668084;28;19957;-76
2021/11/28 04:44:22;;;;;;;;;;;8.50;82.00;;;;;;4686585;28;19924;-76
2021/11/28 04:46:41;;;;;;;;;;;8.50;82.10;;;;;;4669995;28;19993;-76
2021/11/28 04:48:57;;;;;;;;;;;8.50;82.10;;;;;;4670992;28;19924;-76
2021/11/28 04:51:18;;;;;;;;;;;8.60;82.10;;;;;;4670266;28;19924;-75
2021/11/28 04:53:34;;;;;;;;;;;8.60;82.10;;;;;;4670504;28;19969;-76
2021/11/28 04:55:51;;;;;;;;;;;8.60;81.90;;;;;;4670456;28;19951;-76
2021/11/28 04:58:10;;;;;;;;;;;8.60;82.00;;;;;;4670010;28;19942;-76
2021/11/28 05:00:27;;;;;;;;;;;8.60;82.00;;;;;;4670716;28;19924;-75
2021/11/28 05:02:48;;;;;;;;;;;8.50;81.90;;;;;;4669724;28;19960;-76
2021/11/28 05:05:05;;;;;;;;;;;8.50;82.00;;;;;;4671001;28;20110;-76
2021/11/28 05:07:40;;;;;;;;;;;8.50;81.90;;;;;;4687898;28;20370;-76
2021/11/28 05:09:57;;;;;;;;;;;8.50;81.60;;;;;;4670825;28;20046;-76
2021/11/28 05:12:18;;;;;;;;;;;8.50;81.80;;;;;;4669509;28;19924;-76
2021/11/28 05:14:34;;;;;;;;;;;8.40;82.00;;;;;;4670739;28;19931;-76
2021/11/28 05:16:51;;;;;;;;;;;8.30;82.20;;;;;;4669721;28;20041;-76
2021/11/28 05:19:31;;;;;;;;;;;8.40;82.30;;;;;;4677238;28;19923;-76
2021/11/28 05:22:06;;;;;;;;;;;8.40;82.20;;;;;;4688847;28;20416;-76
2021/11/28 05:24:31;;;;;;;;;;;8.40;82.30;;;;;;4669533;28;19967;-77
2021/11/28 05:26:48;;;;;;;;;;;8.40;82.40;;;;;;4673036;28;19924;-76
2021/11/28 05:29:06;;;;;;;;;;;8.40;82.40;;;;;;4672998;28;20007;-76
2021/11/28 05:31:23;;;;;;;;;;;8.40;82.40;;;;;;4674119;28;19959;-75
2021/11/28 05:33:57;;;;;;;;;;;8.40;82.20;;;;;;4691179;28;19923;-76
2021/11/28 05:36:40;;;;;;;;;;;8.40;82.30;;;;;;4672581;28;20315;-76
2021/11/28 05:38:57;;;;;;;;;;;8.40;82.30;;;;;;4673452;28;20352;-76
2021/11/28 05:41:15;;;;;;;;;;;8.40;82.40;;;;;;4673282;28;20010;-76
2021/11/28 05:43:32;;;;;;;;;;;8.40;82.40;;;;;;4673339;28;19971;-76
2021/11/28 05:45:51;;;;;;;;;;;8.50;82.40;;;;;;4671493;28;19923;-76
2021/11/28 05:48:26;;;;;;;;;;;8.50;82.30;;;;;;4691223;28;20282;-76
2021/11/28 05:51:18;;;;;;;;;;;8.50;82.20;;;;;;4613515;28;19956;-75
2021/11/28 05:53:39;;;;;;;;;;;8.50;82.20;;;;;;4652128;28;19928;-76
2021/11/28 05:55:55;;;;;;;;;;;8.50;82.20;;;;;;4671663;28;20455;-76
2021/11/28 05:58:12;;;;;;;;;;;8.50;82.20;;;;;;4672187;28;19955;-75
2021/11/28 06:00:29;;;;;;;;;;;8.50;82.30;;;;;;4672053;28;19959;-76
2021/11/28 06:02:49;;;;;;;;;;;8.50;82.10;;;;;;4671636;28;20102;-76
2021/11/28 06:05:24;;;;;;;;;;;8.50;82.20;;;;;;4690918;28;19963;-76
2021/11/28 06:07:42;;;;;;;;;;;8.40;82.20;;;;;;4670954;28;20298;-76
2021/11/28 06:10:03;;;;;;;;;;;8.40;82.50;;;;;;4672689;28;19931;-76
2021/11/28 06:12:24;;;;;;;;;;;8.40;82.60;;;;;;4671208;28;19951;-75
2021/11/28 06:14:42;;;;;;;;;;;8.40;82.60;;;;;;4672391;28;19924;-77
2021/11/28 06:17:06;;;;;;;;;;;8.50;82.70;;;;;;4670911;28;19963;-76
2021/11/28 06:19:41;;;;;;;;;;;8.50;82.50;;;;;;4690218;28;19927;-76
2021/11/28 06:22:24;;;;;;;;;;;8.50;82.60;;;;;;4672234;28;19924;-75
2021/11/28 06:24:44;;;;;;;;;;;8.50;82.60;;;;;;4670900;28;19971;-76
2021/11/28 06:27:08;;;;;;;;;;;8.50;82.60;;;;;;4672355;28;19930;-76
2021/11/28 06:29:27;;;;;;;;;;;8.50;82.60;;;;;;4670847;28;19924;-77
2021/11/28 06:31:46;;;;;;;;;;;8.50;82.70;;;;;;4672538;28;19924;-75
2021/11/28 06:34:37;;;;;;;;;;;8.50;82.70;;;;;;4612788;28;19968;-77
2021/11/28 06:37:19;;;;;;;;;;;8.60;82.80;;;;;;4649343;28;19955;-77
2021/11/28 06:40:12;;;;;;;;;;;8.60;82.70;;;;;;4690325;28;19931;-77
2021/11/28 06:42:39;;;;;;;;;;;8.60;82.60;;;;;;4670054;28;19932;-77
2021/11/28 06:44:55;;;;;;;;;;;8.60;82.60;;;;;;4671990;28;19935;-75
2021/11/28 06:47:34;;;;;;;;;;;8.60;82.60;;;;;;4670493;28;19924;-75
2021/11/28 06:49:52;;;;;;;;;;;8.60;82.70;;;;;;4671549;28;19959;-76
2021/11/28 06:52:31;;;;;;;;;;;8.60;82.60;;;;;;4651032;28;19923;-75
2021/11/28 06:55:19;;;;;;;;;;;8.60;82.50;;;;;;4653763;28;19981;-77
2021/11/28 06:57:43;;;;;;;;;;;8.60;82.60;;;;;;4671803;28;19924;-76
2021/11/28 06:59:59;;;;;;;;;;;8.60;82.70;;;;;;4670270;28;19969;-77
2021/11/28 07:02:16;;;;;;;;;;;8.60;82.80;;;;;;4671732;28;19975;-75
2021/11/28 07:04:53;;;;;;;;;;;8.60;82.70;;;;;;4646452;28;19994;-75
2021/11/28 07:07:17;;;;;;;;;;;8.60;82.60;;;;;;4671088;28;19981;-75
2021/11/28 07:09:41;;;;;;;;;;;8.70;82.80;;;;;;4670966;28;19925;-75
2021/11/28 07:11:59;;;;;;;;;;;8.70;82.80;;;;;;4670389;28;19924;-75
2021/11/28 07:14:17;;;;;;;;;;;8.70;82.80;;;;;;4671146;28;19931;-76
2021/11/28 07:16:36;;;;;;;;;;;8.70;82.80;;;;;;4670148;28;20360;-74
2021/11/28 07:18:52;;;;;;;;;;;8.70;82.80;;;;;;4671285;28;19925;-75
2021/11/28 07:21:35;;;;;;;;;;;8.70;82.90;;;;;;4688021;28;19924;-75
2021/11/28 07:23:51;;;;;;;;;;;8.70;82.60;;;;;;4671170;28;19954;-77
2021/11/28 07:26:07;;;;;;;;;;;8.60;82.60;;;;;;4669520;28;19924;-76
2021/11/28 07:28:36;;;;;;;;;;;8.70;82.70;;;;;;4671048;28;20006;-77
2021/11/28 07:30:54;;;;;;;;;;;8.60;82.60;;;;;;4687962;28;20018;-77
2021/11/28 07:33:28;;;;;;;;;;;8.60;82.90;;;;;;4688243;28;19955;-74
2021/11/28 07:36:14;;;;;;;;;;;8.60;83.00;;;;;;4616122;28;19925;-77
2021/11/28 07:38:33;;;;;;;;;;;8.60;82.90;;;;;;4687631;28;19990;-75
2021/11/28 07:40:49;;;;;;;;;;;8.60;83.00;;;;;;4671119;28;19924;-75
2021/11/28 07:43:32;;;;;;;;;;;8.60;83.00;;;;;;4669135;28;20015;-75
2021/11/28 07:46:08;;;;;;;;;;;8.60;83.00;;;;;;4687187;28;20018;-75
2021/11/28 07:48:46;;;;;;;;;;;8.70;83.10;;;;;;4686540;28;19951;-75
2021/11/28 07:51:09;;;;;;;;;;;8.70;83.00;;;;;;4668197;28;20027;-74
2021/11/28 07:53:26;;;;;;;;;;;8.70;83.00;;;;;;4669484;28;20417;-75
2021/11/28 07:55:43;;;;;;;;;;;8.70;83.00;;;;;;4667815;28;20454;-75
2021/11/28 07:58:19;;;;;;;;;;;8.70;83.10;;;;;;4686867;28;19924;-76
2021/11/28 08:00:46;;;;;;;;;;;8.70;83.10;;;;;;4668464;28;20479;-75
2021/11/28 08:03:19;;;;;;;;;;;8.70;83.20;;;;;;4668858;28;19931;-76
2021/11/28 08:06:01;;;;;;;;;;;8.80;83.20;;;;;;4686931;28;20011;-75
2021/11/28 08:08:37;;;;;;;;;;;8.80;83.10;;;;;;4686140;28;19928;-75
2021/11/28 08:11:10;;;;;;;;;;;8.80;83.00;;;;;;4669147;28;19931;-73
2021/11/28 08:13:26;;;;;;;;;;;8.80;83.10;;;;;;4668223;28;20377;-75
2021/11/28 08:15:43;;;;;;;;;;;8.90;83.20;;;;;;4686967;28;20320;-75
2021/11/28 08:17:59;;;;;;;;;;;8.90;83.10;;;;;;4686496;28;20380;-75
2021/11/28 08:20:17;;;;;;;;;;;8.90;82.90;;;;;;4687145;28;20295;-75
2021/11/28 08:22:33;;;;;;;;;;;8.90;83.00;;;;;;4686507;28;19928;-74
2021/11/28 08:24:49;;;;;;;;;;;8.90;83.00;;;;;;4686948;28;20401;-75
2021/11/28 08:27:08;;;;;;;;;;;9.00;83.10;;;;;;4686503;28;19967;-74
2021/11/28 08:29:25;;;;;;;;;;;9.00;83.00;;;;;;4668305;28;19924;-76
2021/11/28 08:31:46;;;;;;;;;;;9.00;83.10;;;;;;4668656;28;19955;-75
2021/11/28 08:34:28;;;;;;;;;;;9.00;83.00;;;;;;4654174;28;19924;-74
2021/11/28 08:36:53;;;;;;;;;;;9.00;83.10;;;;;;4687135;28;19931;-75
2021/11/28 08:39:09;;;;;;;;;;;9.10;83.20;;;;;;4685896;28;19939;-75
2021/11/28 08:41:27;;;;;;;;;;;9.10;83.20;;;;;;4668606;28;20006;-75
2021/11/28 08:43:46;;;;;;;;;;;9.10;83.20;;;;;;4685883;28;19960;-73
2021/11/28 08:46:02;;;;;;;;;;;9.20;83.30;;;;;;4686731;28;19924;-73
2021/11/28 08:48:19;;;;;;;;;;;9.20;83.30;;;;;;4667518;28;19931;-73
2021/11/28 08:50:35;;;;;;;;;;;9.30;83.20;;;;;;4686451;28;19958;-76
2021/11/28 08:52:53;;;;;;;;;;;9.30;83.10;;;;;;4667898;28;19947;-74
2021/11/28 08:55:09;;;;;;;;;;;9.30;83.10;;;;;;4686319;28;19928;-73
2021/11/28 08:57:26;;;;;;;;;;;9.40;83.10;;;;;;4667907;28;20272;-75
2021/11/28 08:59:43;;;;;;;;;;;9.40;83.10;;;;;;4686996;28;20290;-75
2021/11/28 09:01:59;;;;;;;;;;;9.40;83.20;;;;;;4671878;28;19928;-74
2021/11/28 09:04:16;;;;;;;;;;;9.40;83.10;;;;;;4689817;28;19958;-73
2021/11/28 09:06:32;;;;;;;;;;;9.40;83.20;;;;;;4690422;28;20205;-75
2021/11/28 09:08:49;;;;;;;;;;;9.50;83.30;;;;;;4689349;28;20422;-74
2021/11/28 09:11:06;;;;;;;;;;;9.50;83.20;;;;;;4690678;28;20347;-74
2021/11/28 09:13:22;;;;;;;;;;;9.50;83.20;;;;;;4671018;28;19924;-75
2021/11/28 09:15:38;;;;;;;;;;;9.50;83.20;;;;;;4690425;28;19928;-75
2021/11/28 09:18:17;;;;;;;;;;;9.50;83.20;;;;;;4689234;28;19924;-76
2021/11/28 09:20:34;;;;;;;;;;;9.60;83.20;;;;;;4671896;28;20023;-75
2021/11/28 09:25:26;;;;;;;;;;;9.60;83.30;;;;;;4671614;28;19967;-75
2021/11/28 09:27:42;;;;;;;;;;;9.60;83.30;;;;;;4689594;28;19955;-75
2021/11/28 09:29:59;;;;;;;;;;;9.70;83.40;;;;;;4689639;28;19928;-75
2021/11/28 09:32:16;;;;;;;;;;;9.70;83.40;;;;;;4689676;28;19959;-75
2021/11/28 09:34:32;;;;;;;;;;;9.70;83.30;;;;;;4689416;28;19930;-73
2021/11/28 09:36:48;;;;;;;;;;;9.70;83.20;;;;;;4689783;28;19931;-73
2021/11/28 09:39:07;;;;;;;;;;;9.70;83.20;;;;;;4688839;28;19959;-74
2021/11/28 09:41:46;;;;;;;;;;;9.70;83.30;;;;;;4690161;28;19928;-74
2021/11/28 09:44:04;;;;;;;;;;;9.70;83.40;;;;;;4688521;28;19928;-74
2021/11/28 09:46:22;;;;;;;;;;;9.70;83.50;;;;;;4671596;28;19966;-73
2021/11/28 09:48:38;;;;;;;;;;;9.70;84.10;;;;;;4688993;28;19958;-74
2021/11/28 09:50:57;;;;;;;;;;;9.80;83.40;;;;;;4689723;28;19923;-74
2021/11/28 09:53:24;;;;;;;;;;;9.80;83.40;;;;;;4688999;28;19963;-74
2021/11/28 09:55:43;;;;;;;;;;;9.90;83.40;;;;;;4689161;28;19923;-73
2021/11/28 09:58:03;;;;;;;;;;;9.90;83.30;;;;;;4689149;28;19959;-74
2021/11/28 10:00:21;;;;;;;;;;;9.90;83.30;;;;;;4688983;28;19969;-74
2021/11/28 10:02:37;;;;;;;;;;;10.00;83.30;;;;;;4689296;28;19924;-75
2021/11/28 10:04:56;;;;;;;;;;;10.00;83.20;;;;;;4670357;28;19924;-74
2021/11/28 10:07:16;;;;;;;;;;;10.00;83.30;;;;;;4689612;28;19961;-74
2021/11/28 10:09:32;;;;;;;;;;;10.10;83.20;;;;;;4688138;28;19981;-74
2021/11/28 10:12:03;;;;;;;;;;;10.10;83.20;;;;;;4670907;28;20271;-75
2021/11/28 10:14:23;;;;;;;;;;;10.10;83.10;;;;;;4669907;28;19962;-74
2021/11/28 10:16:39;;;;;;;;;;;10.10;83.10;;;;;;4670949;28;20019;-74
2021/11/28 10:18:56;;;;;;;;;;;10.20;83.10;;;;;;4688199;28;20327;-75
2021/11/28 10:21:16;;;;;;;;;;;10.20;83.20;;;;;;4689153;28;19959;-74
2021/11/28 10:23:33;;;;;;;;;;;10.30;83.10;;;;;;4688327;28;19924;-75
2021/11/28 10:25:49;;;;;;;;;;;10.30;83.00;;;;;;4670708;28;19928;-75
2021/11/28 10:28:09;;;;;;;;;;;10.30;83.00;;;;;;4670307;28;20061;-75
2021/11/28 10:30:34;;;;;;;;;;;10.40;83.10;;;;;;4688709;28;20298;-76
2021/11/28 10:32:53;;;;;;;;;;;10.40;83.10;;;;;;4689009;28;19923;-77
2021/11/28 10:35:13;;;;;;;;;;;10.40;83.00;;;;;;4669850;28;20404;-74
2021/11/28 10:37:31;;;;;;;;;;;10.40;83.00;;;;;;4688899;28;19927;-72
2021/11/28 10:39:48;;;;;;;;;;;10.50;82.90;;;;;;4670113;28;20322;-76
2021/11/28 10:42:07;;;;;;;;;;;10.50;82.90;;;;;;4689331;28;20377;-75
2021/11/28 10:44:26;;;;;;;;;;;10.50;83.00;;;;;;4687349;28;20439;-76
2021/11/28 10:46:47;;;;;;;;;;;10.50;83.20;;;;;;4689194;28;19962;-75
2021/11/28 10:49:04;;;;;;;;;;;10.60;83.20;;;;;;4669383;28;19924;-75
2021/11/28 10:51:23;;;;;;;;;;;10.70;83.30;;;;;;4670478;28;19928;-74
2021/11/28 10:53:47;;;;;;;;;;;10.80;83.50;;;;;;4669457;28;19927;-74
2021/11/28 10:56:05;;;;;;;;;;;10.90;83.30;;;;;;4670189;28;20443;-73
2021/11/28 10:58:22;;;;;;;;;;;11.00;82.80;;;;;;4687954;28;19931;-73
2021/11/28 11:00:40;;;;;;;;;;;11.10;82.50;;;;;;4688227;28;19930;-73
2021/11/28 11:03:11;;;;;;;;;;;11.20;82.40;;;;;;4687857;28;19958;-74
2021/11/28 11:05:29;;;;;;;;;;;11.20;82.20;;;;;;4669187;28;19924;-73
2021/11/28 11:07:48;;;;;;;;;;;11.10;82.20;;;;;;4688235;28;20475;-74
2021/11/28 11:10:15;;;;;;;;;;;11.20;82.30;;;;;;4687255;28;20344;-73
2021/11/28 11:12:33;;;;;;;;;;;11.20;82.30;;;;;;4688464;28;20428;-73
2021/11/28 11:14:50;;;;;;;;;;;11.20;82.30;;;;;;4687064;28;20018;-70
2021/11/28 11:17:11;;;;;;;;;;;11.20;82.30;;;;;;4687893;28;20353;-73
2021/11/28 11:19:34;;;;;;;;;;;11.20;82.50;;;;;;4684082;28;19924;-71
2021/11/28 11:21:59;;;;;;;;;;;11.20;82.50;;;;;;4685634;28;20310;-73
2021/11/28 11:24:23;;;;;;;;;;;11.30;82.40;;;;;;4665899;28;19924;-72
2021/11/28 11:26:39;;;;;;;;;;;11.30;82.40;;;;;;4685498;28;20625;-72
2021/11/28 11:28:58;;;;;;;;;;;11.30;82.40;;;;;;4667102;28;20459;-74
2021/11/28 11:31:22;;;;;;;;;;;11.30;82.30;;;;;;4685227;28;19930;-73
2021/11/28 11:33:39;;;;;;;;;;;11.30;82.30;;;;;;4667121;28;20019;-74
2021/11/28 11:36:01;;;;;;;;;;;11.30;82.40;;;;;;4682883;28;19981;-74
2021/11/28 11:38:17;;;;;;;;;;;11.30;82.40;;;;;;4665901;28;19966;-74
2021/11/28 11:40:33;;;;;;;;;;;11.30;82.40;;;;;;4682645;28;19923;-73
2021/11/28 11:42:51;;;;;;;;;;;11.40;82.50;;;;;;4684173;28;19930;-73
2021/11/28 11:45:10;;;;;;;;;;;11.30;82.40;;;;;;4664660;28;19932;-74
2021/11/28 11:47:26;;;;;;;;;;;11.40;82.40;;;;;;4667195;28;19924;-74
2021/11/28 11:49:43;;;;;;;;;;;11.40;82.40;;;;;;4685427;28;19924;-73
2021/11/28 11:52:08;;;;;;;;;;;11.40;82.20;;;;;;4687537;28;19923;-74
2021/11/28 11:54:26;;;;;;;;;;;11.40;82.20;;;;;;4686969;28;20442;-73
2021/11/28 11:56:42;;;;;;;;;;;11.40;82.20;;;;;;4687213;28;19974;-74
2021/11/28 11:59:03;;;;;;;;;;;11.40;82.20;;;;;;4686630;28;20004;-73
2021/11/28 12:01:24;;;;;;;;;;;11.40;82.40;;;;;;4687148;28;19924;-74
2021/11/28 12:03:46;;;;;;;;;;;11.40;82.10;;;;;;4686989;28;19927;-73
2021/11/28 12:06:02;;;;;;;;;;;11.40;82.40;;;;;;4668473;28;19966;-74
2021/11/28 12:08:21;;;;;;;;;;;11.40;82.40;;;;;;4668894;28;19924;-72
2021/11/28 12:10:39;;;;;;;;;;;11.40;82.40;;;;;;4668307;28;20310;-73
2021/11/28 12:12:59;;;;;;;;;;;11.40;82.40;;;;;;4687445;28;19976;-74
2021/11/28 12:15:20;;;;;;;;;;;11.50;82.50;;;;;;4686031;28;19950;-73
2021/11/28 12:17:37;;;;;;;;;;;11.50;82.50;;;;;;4687243;28;19924;-73
2021/11/28 12:19:53;;;;;;;;;;;11.50;82.50;;;;;;4686141;28;20387;-73
2021/11/28 12:22:43;;;;;;;;;;;11.50;82.50;;;;;;4668930;28;19959;-73
2021/11/28 12:25:14;;;;;;;;;;;11.50;82.50;;;;;;4668117;28;19930;-73
2021/11/28 12:27:38;;;;;;;;;;;11.50;82.40;;;;;;4667450;28;19924;-73
2021/11/28 12:29:54;;;;;;;;;;;11.50;82.30;;;;;;4668708;28;19931;-73
2021/11/28 12:32:23;;;;;;;;;;;11.50;82.20;;;;;;4686043;28;19956;-73
2021/11/28 12:34:42;;;;;;;;;;;11.50;82.30;;;;;;4686889;28;19931;-73
2021/11/28 12:36:59;;;;;;;;;;;11.50;82.50;;;;;;4685746;28;19924;-73
2021/11/28 12:39:34;;;;;;;;;;;11.40;82.40;;;;;;4687139;28;19982;-73
2021/11/28 12:42:00;;;;;;;;;;;11.50;82.60;;;;;;4668025;28;19924;-73
2021/11/28 12:44:19;;;;;;;;;;;11.40;82.60;;;;;;4668231;28;19967;-74
2021/11/28 12:46:40;;;;;;;;;;;11.40;82.70;;;;;;4667568;28;20325;-74
2021/11/28 12:49:10;;;;;;;;;;;11.40;82.80;;;;;;4686479;28;19923;-74
2021/11/28 12:51:27;;;;;;;;;;;11.40;82.90;;;;;;4686287;28;20333;-74
2021/11/28 12:53:45;;;;;;;;;;;11.40;82.90;;;;;;4685988;28;19924;-75
2021/11/28 12:56:19;;;;;;;;;;;11.50;83.00;;;;;;4668438;28;19924;-75
2021/11/28 12:58:35;;;;;;;;;;;11.50;83.10;;;;;;4685545;28;19966;-74
2021/11/28 13:00:53;;;;;;;;;;;11.50;83.30;;;;;;4686860;28;19923;-74
2021/11/28 13:03:23;;;;;;;;;;;11.40;83.30;;;;;;4685562;28;19924;-73
2021/11/28 13:05:42;;;;;;;;;;;11.40;83.40;;;;;;4686549;28;19981;-73
2021/11/28 13:08:28;;;;;;;;;;;11.40;83.60;;;;;;4685671;28;19963;-73
2021/11/28 13:11:22;;;;;;;;;;;11.40;83.70;;;;;;4685756;28;19989;-72
2021/11/28 13:13:39;;;;;;;;;;;11.40;84.20;;;;;;4668328;28;20467;-73
2021/11/28 13:15:58;;;;;;;;;;;11.40;84.60;;;;;;4685469;28;19930;-73
2021/11/28 13:18:15;;;;;;;;;;;11.30;84.80;;;;;;4668553;28;19925;-72
2021/11/28 13:20:51;;;;;;;;;;;11.30;85.10;;;;;;4685794;28;19946;-73
2021/11/28 13:23:26;;;;;;;;;;;11.30;85.40;;;;;;4686333;28;20364;-72
2021/11/28 13:26:16;;;;;;;;;;;11.30;85.90;;;;;;4685683;28;20386;-72
2021/11/28 13:28:43;;;;;;;;;;;11.30;86.50;;;;;;4685256;28;19961;-73
2021/11/28 13:31:06;;;;;;;;;;;11.30;86.90;;;;;;4668403;28;19931;-72
2021/11/28 13:33:24;;;;;;;;;;;11.20;87.20;;;;;;4667182;28;20088;-74
2021/11/28 13:35:40;;;;;;;;;;;11.20;87.50;;;;;;4668187;28;19924;-74
2021/11/28 13:38:10;;;;;;;;;;;11.20;87.70;;;;;;4685260;28;19924;-74
2021/11/28 13:40:26;;;;;;;;;;;11.20;88.00;;;;;;4667952;28;19924;-74
2021/11/28 13:42:45;;;;;;;;;;;11.20;88.20;;;;;;4685565;28;19923;-74
2021/11/28 13:45:09;;;;;;;;;;;11.20;88.40;;;;;;4685953;28;19924;-74
2021/11/28 13:47:27;;;;;;;;;;;11.20;88.60;;;;;;4669200;28;20035;-72
2021/11/28 13:49:46;;;;;;;;;;;11.20;88.80;;;;;;4670894;28;19952;-74
2021/11/28 13:52:04;;;;;;;;;;;11.20;88.90;;;;;;4689548;28;20345;-75
2021/11/28 13:54:30;;;;;;;;;;;11.20;89.10;;;;;;4670585;28;19924;-74